Time;durP1;ratioP1;P1;durP2;ratioP2;P2;SDS_P1;SDS_P2;PMS_P1;PMS_P2;Temp;Humidity;BMP_temperature;BMP_pressure;BME280_temperature;BME280_humidity;BME280_pressure;Samples;Min_cycle;Max_cycle;Signal;HPM_P1;HPM_P2
2024/01/24 00:01:07;;;;;;;7.10;5.75;;;11.80;99.90;;;;;;5033124;28;20036;-85
2024/01/24 00:03:33;;;;;;;7.05;4.68;;;11.80;99.90;;;;;;5049723;28;20075;-87
2024/01/24 00:05:59;;;;;;;6.63;4.85;;;11.90;99.90;;;;;;5037926;28;20045;-87
2024/01/24 00:08:25;;;;;;;6.07;4.22;;;11.90;99.90;;;;;;5032919;28;20437;-84
2024/01/24 00:10:50;;;;;;;5.72;4.10;;;11.90;99.90;;;;;;5027715;28;20052;-87
2024/01/24 00:13:16;;;;;;;4.40;3.85;;;12.00;99.90;;;;;;5036294;28;20033;-85
2024/01/24 00:15:42;;;;;;;7.05;3.90;;;12.00;99.90;;;;;;5018981;28;20041;-84
2024/01/24 00:18:07;;;;;;;5.28;4.40;;;12.00;99.90;;;;;;5032379;28;20041;-86
2024/01/24 00:20:33;;;;;;;3.75;3.30;;;11.90;99.90;;;;;;5054902;28;20044;-86
2024/01/24 00:22:59;;;;;;;5.40;3.38;;;12.00;99.90;;;;;;5055531;28;20576;-86
2024/01/24 00:25:25;;;;;;;5.25;3.30;;;12.10;99.90;;;;;;5047313;28;20639;-89
2024/01/24 00:27:50;;;;;;;9.30;3.50;;;12.20;99.90;;;;;;5052678;28;20040;-87
2024/01/24 00:30:16;;;;;;;6.90;3.10;;;12.30;99.90;;;;;;5054489;28;20403;-88
2024/01/24 00:32:42;;;;;;;6.25;3.10;;;12.30;99.90;;;;;;5032325;28;20863;-87
2024/01/24 00:35:08;;;;;;;4.75;3.20;;;12.30;99.90;;;;;;5039833;28;20079;-85
2024/01/24 00:37:34;;;;;;;4.18;3.33;;;12.30;99.90;;;;;;5039777;28;20072;-84
2024/01/24 00:39:59;;;;;;;11.30;3.30;;;12.30;99.90;;;;;;5049983;28;20068;-84
2024/01/24 00:42:25;;;;;;;5.63;3.05;;;12.20;99.90;;;;;;5049524;28;20044;-86
2024/01/24 00:44:51;;;;;;;7.57;3.63;;;12.20;99.90;;;;;;5051426;28;20120;-84
2024/01/24 00:47:18;;;;;;;5.20;2.63;;;12.20;99.90;;;;;;5059738;28;20045;-88
2024/01/24 00:49:44;;;;;;;5.93;2.83;;;12.20;99.90;;;;;;5041618;28;20064;-86
2024/01/24 00:52:10;;;;;;;5.22;3.08;;;12.20;99.90;;;;;;5016668;28;20842;-87
2024/01/24 00:54:35;;;;;;;6.80;2.85;;;12.30;99.90;;;;;;5051365;28;20049;-85
2024/01/24 00:57:01;;;;;;;6.72;2.80;;;12.40;99.90;;;;;;5040240;28;20048;-87
2024/01/24 00:59:27;;;;;;;6.65;2.75;;;12.40;99.90;;;;;;4999236;28;20045;-85
2024/01/24 01:01:53;;;;;;;4.57;2.78;;;12.40;99.90;;;;;;5031353;28;20072;-88
2024/01/24 01:04:18;;;;;;;4.47;2.28;;;12.30;99.90;;;;;;5033469;28;20048;-85
2024/01/24 01:06:44;;;;;;;7.43;2.47;;;12.40;99.90;;;;;;5034293;28;20045;-87
2024/01/24 01:09:10;;;;;;;3.83;2.65;;;12.50;99.90;;;;;;5037045;28;20045;-88
2024/01/24 01:11:36;;;;;;;3.53;2.50;;;12.60;99.90;;;;;;5018460;28;20034;-85
2024/01/24 01:14:03;;;;;;;3.58;2.78;;;12.60;99.90;;;;;;5038750;28;20396;-88
2024/01/24 01:16:29;;;;;;;5.68;2.75;;;12.50;99.90;;;;;;5020055;28;20041;-89
2024/01/24 01:18:54;;;;;;;5.30;2.58;;;12.50;99.90;;;;;;5048452;28;20033;-86
2024/01/24 01:21:20;;;;;;;5.55;2.45;;;12.50;99.90;;;;;;5038746;28;20041;-85
2024/01/24 01:23:46;;;;;;;6.47;2.63;;;12.50;99.90;;;;;;5053817;28;20076;-90
2024/01/24 01:26:12;;;;;;;4.10;2.53;;;12.50;99.90;;;;;;5019583;28;20056;-85
2024/01/24 01:28:38;;;;;;;5.03;2.58;;;12.40;99.90;;;;;;5056900;28;20585;-88
2024/01/24 01:31:05;;;;;;;4.07;3.22;;;12.40;99.90;;;;;;5037448;28;20040;-89
2024/01/24 01:33:30;;;;;;;3.47;2.17;;;12.40;99.90;;;;;;5019300;28;20041;-86
2024/01/24 01:35:56;;;;;;;3.97;2.15;;;12.40;99.90;;;;;;5054892;28;20480;-86
2024/01/24 01:38:22;;;;;;;5.82;1.95;;;12.50;99.90;;;;;;5019853;28;20037;-85
2024/01/24 01:40:48;;;;;;;3.85;1.50;;;12.50;99.90;;;;;;5035774;28;20496;-85
2024/01/24 01:43:15;;;;;;;2.20;1.40;;;12.40;99.90;;;;;;5062307;28;20135;-88
2024/01/24 01:45:44;;;;;;;5.07;1.58;;;12.40;99.90;;;;;;5041804;28;20436;-89
2024/01/24 01:48:10;;;;;;;2.42;1.45;;;12.50;99.90;;;;;;5064459;28;20048;-89
2024/01/24 01:50:38;;;;;;;2.75;1.40;;;12.40;99.90;;;;;;5039994;28;20129;-89
2024/01/24 01:53:05;;;;;;;2.38;1.25;;;12.40;99.90;;;;;;5036154;28;20049;-88
2024/01/24 01:55:32;;;;;;;3.35;1.33;;;12.50;99.90;;;;;;5053935;28;20057;-86
2024/01/24 01:57:58;;;;;;;3.47;1.40;;;12.50;99.90;;;;;;5057359;28;20118;-85
2024/01/24 02:00:26;;;;;;;2.15;1.35;;;12.50;99.90;;;;;;5034841;28;20047;-85
2024/01/24 02:02:53;;;;;;;5.07;1.40;;;12.50;99.90;;;;;;5051581;28;20179;-88
2024/01/24 02:05:18;;;;;;;2.88;1.38;;;12.60;99.90;;;;;;5029424;28;20139;-85
2024/01/24 02:07:45;;;;;;;4.07;1.58;;;12.60;99.90;;;;;;5050791;28;20490;-86
2024/01/24 02:10:12;;;;;;;3.53;1.30;;;12.60;99.90;;;;;;5050151;28;20047;-86
2024/01/24 02:12:38;;;;;;;4.20;1.50;;;12.70;99.90;;;;;;5035687;28;20055;-86
2024/01/24 02:15:04;;;;;;;2.90;1.15;;;12.60;99.90;;;;;;5036138;28;20037;-88
2024/01/24 02:17:30;;;;;;;4.35;1.27;;;12.60;99.90;;;;;;5036017;28;20220;-85
2024/01/24 02:19:55;;;;;;;3.90;1.40;;;12.60;99.90;;;;;;5032237;28;20378;-85
2024/01/24 02:22:21;;;;;;;4.43;1.40;;;12.60;99.90;;;;;;5024179;28;20052;-84
2024/01/24 02:24:47;;;;;;;7.20;1.65;;;12.60;99.90;;;;;;5035457;28;20128;-88
2024/01/24 02:27:13;;;;;;;2.83;1.10;;;12.70;99.90;;;;;;5035389;28;20439;-89
2024/01/24 02:29:39;;;;;;;7.00;1.58;;;12.70;99.90;;;;;;5052309;28;20044;-83
2024/01/24 02:32:05;;;;;;;5.88;1.27;;;12.80;99.90;;;;;;5051609;28;20045;-87
2024/01/24 02:34:34;;;;;;;9.50;1.60;;;12.80;99.90;;;;;;5051584;28;20437;-88
2024/01/24 02:37:00;;;;;;;4.95;1.30;;;12.80;99.90;;;;;;5009616;28;20180;-85
2024/01/24 02:39:26;;;;;;;4.90;1.60;;;12.80;99.90;;;;;;5046247;28;20439;-86
2024/01/24 02:41:53;;;;;;;4.43;1.35;;;12.70;99.90;;;;;;5053750;28;20029;-86
2024/01/24 02:44:19;;;;;;;6.97;1.35;;;12.70;99.90;;;;;;5031499;28;20473;-85
2024/01/24 02:46:44;;;;;;;4.72;1.48;;;12.60;99.90;;;;;;5052651;28;20080;-86
2024/01/24 02:49:10;;;;;;;7.13;1.35;;;12.60;99.90;;;;;;5037455;28;20051;-81
2024/01/24 02:51:37;;;;;;;4.63;1.30;;;12.60;99.90;;;;;;5051338;28;20100;-85
2024/01/24 02:54:02;;;;;;;3.25;1.15;;;12.50;99.90;;;;;;5051175;28;20041;-86
2024/01/24 02:56:28;;;;;;;4.68;1.38;;;12.50;99.90;;;;;;5051552;28;20573;-85
2024/01/24 02:58:54;;;;;;;4.25;1.73;;;12.40;99.90;;;;;;5041787;28;20041;-87
2024/01/24 03:01:21;;;;;;;5.90;1.80;;;12.30;99.90;;;;;;5037544;28;20455;-84
2024/01/24 03:03:47;;;;;;;5.40;1.80;;;12.30;99.90;;;;;;5052959;28;20131;-86
2024/01/24 03:06:13;;;;;;;7.32;1.90;;;12.30;99.90;;;;;;5039394;28;20063;-86
2024/01/24 03:08:55;;;;;;;7.80;1.98;;;12.10;99.90;;;;;;5052271;28;20514;-87
2024/01/24 03:11:21;;;;;;;7.43;2.20;;;12.20;99.90;;;;;;5050256;28;20091;-84
2024/01/24 03:13:46;;;;;;;9.23;2.20;;;12.10;99.90;;;;;;5050250;28;20040;-86
2024/01/24 03:16:12;;;;;;;9.45;2.90;;;12.00;99.90;;;;;;5051076;28;20130;-86
2024/01/24 03:18:39;;;;;;;11.15;2.60;;;11.90;99.90;;;;;;5050106;28;20048;-83
2024/01/24 03:21:08;;;;;;;9.77;2.85;;;11.90;99.90;;;;;;5034644;28;20037;-84
2024/01/24 03:23:38;;;;;;;7.95;2.45;;;11.90;99.90;;;;;;5033288;28;20072;-88
2024/01/24 03:26:07;;;;;;;13.52;3.22;;;11.90;99.90;;;;;;5051186;28;20393;-85
2024/01/24 03:28:34;;;;;;;14.20;3.28;;;11.90;99.90;;;;;;5037132;28;20054;-89
2024/01/24 03:31:01;;;;;;;13.20;3.40;;;11.80;99.90;;;;;;5062379;28;20036;-88
2024/01/24 03:33:27;;;;;;;14.57;2.97;;;11.80;99.90;;;;;;5033875;28;20041;-84
2024/01/24 03:35:53;;;;;;;12.95;3.40;;;11.80;99.90;;;;;;5034620;28;20048;-85
2024/01/24 03:38:19;;;;;;;14.85;3.20;;;11.80;99.90;;;;;;5043573;28;20059;-85
2024/01/24 03:40:46;;;;;;;13.07;3.38;;;11.70;99.90;;;;;;5053703;28;20036;-86
2024/01/24 03:43:12;;;;;;;18.80;3.63;;;11.70;99.90;;;;;;5048661;28;20036;-86
2024/01/24 03:45:38;;;;;;;11.10;2.80;;;11.70;99.90;;;;;;5066659;28;20041;-84
2024/01/24 03:48:06;;;;;;;15.45;3.58;;;11.70;99.90;;;;;;5052631;28;20419;-87
2024/01/24 03:50:35;;;;;;;12.02;3.28;;;11.60;99.90;;;;;;5059356;28;20040;-85
2024/01/24 03:53:01;;;;;;;12.60;3.17;;;11.70;99.90;;;;;;5033763;28;20037;-86
2024/01/24 03:55:31;;;;;;;14.82;3.60;;;11.70;99.90;;;;;;5034316;28;20060;-87
2024/01/24 03:57:57;;;;;;;12.25;2.90;;;11.60;99.90;;;;;;5033318;28;20029;-86
2024/01/24 04:00:23;;;;;;;15.95;3.92;;;11.70;99.90;;;;;;5049980;28;20052;-88
2024/01/24 04:02:50;;;;;;;18.77;3.45;;;11.60;99.90;;;;;;5050839;28;20041;-84
2024/01/24 04:05:18;;;;;;;13.57;3.73;;;11.60;99.90;;;;;;5049961;28;20037;-88
2024/01/24 04:07:44;;;;;;;14.13;3.70;;;11.60;99.90;;;;;;5033839;28;20044;-85
2024/01/24 04:10:10;;;;;;;15.70;3.83;;;11.60;99.90;;;;;;5037119;28;20117;-87
2024/01/24 04:12:36;;;;;;;15.38;3.78;;;11.50;99.90;;;;;;5070566;28;20041;-88
2024/01/24 04:15:02;;;;;;;15.15;3.47;;;11.50;99.90;;;;;;5036489;28;20071;-88
2024/01/24 04:17:28;;;;;;;16.53;3.83;;;11.60;99.90;;;;;;5049944;28;20527;-86
2024/01/24 04:19:54;;;;;;;20.43;4.63;;;11.60;99.90;;;;;;5054431;28;20052;-88
2024/01/24 04:22:20;;;;;;;17.35;4.28;;;11.50;99.90;;;;;;5049030;28;20071;-86
2024/01/24 04:24:45;;;;;;;17.92;4.38;;;11.60;99.90;;;;;;5017302;28;20068;-83
2024/01/24 04:27:11;;;;;;;23.85;5.50;;;11.60;99.90;;;;;;5048933;28;20068;-87
2024/01/24 04:29:37;;;;;;;17.88;3.90;;;11.60;99.90;;;;;;5033290;28;20116;-85
2024/01/24 04:32:03;;;;;;;19.52;4.13;;;11.60;99.90;;;;;;5045100;28;20694;-87
2024/01/24 04:34:29;;;;;;;15.05;4.97;;;11.60;99.90;;;;;;5027757;28;20100;-85
2024/01/24 04:36:54;;;;;;;18.50;4.13;;;11.60;99.90;;;;;;5033565;28;20037;-84
2024/01/24 04:39:21;;;;;;;20.27;4.85;;;11.60;99.90;;;;;;5034563;28;20403;-84
2024/01/24 04:41:47;;;;;;;22.02;4.68;;;11.60;99.90;;;;;;5040326;28;20048;-87
2024/01/24 04:44:14;;;;;;;22.73;5.20;;;11.60;99.90;;;;;;5057126;28;20496;-89
2024/01/24 04:46:40;;;;;;;21.73;5.07;;;11.60;99.90;;;;;;5038888;28;20040;-88
2024/01/24 04:49:05;;;;;;;18.58;4.28;;;11.60;99.90;;;;;;5056775;28;20044;-91
2024/01/24 04:51:31;;;;;;;20.30;4.80;;;11.60;99.90;;;;;;5052071;28;20078;-89
2024/01/24 04:53:57;;;;;;;25.77;5.53;;;11.50;99.90;;;;;;5061111;28;20043;-87
2024/01/24 04:56:24;;;;;;;20.48;5.05;;;11.50;99.90;;;;;;5039591;28;20053;-86
2024/01/24 04:58:50;;;;;;;24.83;6.50;;;11.50;99.90;;;;;;5056913;28;20110;-91
2024/01/24 05:01:15;;;;;;;20.53;5.73;;;11.50;99.90;;;;;;5056440;28;20477;-84
2024/01/24 05:03:41;;;;;;;23.30;6.43;;;11.50;99.90;;;;;;5040180;28;20039;-85
2024/01/24 05:06:07;;;;;;;23.13;5.72;;;11.50;99.90;;;;;;5039882;28;21683;-86
2024/01/24 05:08:33;;;;;;;24.52;5.75;;;11.40;99.90;;;;;;5044882;28;20037;-85
2024/01/24 05:10:59;;;;;;;19.80;5.18;;;11.40;99.90;;;;;;5056558;28;20528;-83
2024/01/24 05:13:24;;;;;;;23.93;5.73;;;11.40;99.90;;;;;;5039629;28;20060;-86
2024/01/24 05:15:50;;;;;;;23.33;6.47;;;11.40;99.90;;;;;;5020791;28;20555;-88
2024/01/24 05:18:16;;;;;;;19.08;5.70;;;11.30;99.90;;;;;;5042063;28;20041;-88
2024/01/24 05:20:42;;;;;;;26.90;6.30;;;11.30;99.90;;;;;;5041509;28;20040;-90
2024/01/24 05:23:07;;;;;;;27.30;6.03;;;11.30;99.90;;;;;;5038195;28;20339;-87
2024/01/24 05:25:34;;;;;;;25.27;6.27;;;11.30;99.90;;;;;;5017149;28;20045;-90
2024/01/24 05:28:00;;;;;;;26.73;5.73;;;11.20;99.90;;;;;;5039347;28;20045;-88
2024/01/24 05:30:26;;;;;;;34.30;6.60;;;11.30;99.90;;;;;;5057316;28;20051;-90
2024/01/24 05:32:56;;;;;;;24.35;6.07;;;11.30;99.90;;;;;;5020687;28;20104;-87
2024/01/24 05:35:22;;;;;;;24.27;6.65;;;11.30;99.90;;;;;;5038613;28;20392;-86
2024/01/24 05:37:47;;;;;;;30.33;6.20;;;11.20;99.90;;;;;;5034840;28;20032;-89
2024/01/24 05:40:13;;;;;;;26.83;6.53;;;11.30;99.90;;;;;;5049720;28;20510;-91
2024/01/24 05:42:39;;;;;;;32.70;7.43;;;11.30;99.90;;;;;;5045120;28;20048;-87
2024/01/24 05:45:05;;;;;;;28.27;6.73;;;11.30;99.90;;;;;;5056058;28;20687;-86
2024/01/24 05:47:31;;;;;;;26.17;6.30;;;11.30;99.90;;;;;;5043512;28;20039;-87
2024/01/24 05:50:00;;;;;;;27.10;6.60;;;11.20;99.90;;;;;;5041861;28;20365;-89
2024/01/24 05:52:26;;;;;;;21.87;6.13;;;11.20;99.90;;;;;;5017752;28;20045;-88
2024/01/24 05:54:52;;;;;;;27.27;6.80;;;11.20;99.90;;;;;;5019816;28;20500;-85
2024/01/24 05:57:18;;;;;;;37.17;7.23;;;11.20;99.90;;;;;;5035763;28;20697;-88
2024/01/24 05:59:44;;;;;;;33.30;7.20;;;11.20;99.90;;;;;;5039842;28;20438;-87
2024/01/24 06:02:10;;;;;;;28.40;6.30;;;11.20;99.90;;;;;;5045046;28;20037;-86
2024/01/24 06:04:35;;;;;;;23.07;6.70;;;11.10;99.90;;;;;;5036213;28;20132;-87
2024/01/24 06:07:01;;;;;;;27.20;7.17;;;11.10;99.90;;;;;;5044558;28;20119;-86
2024/01/24 06:09:28;;;;;;;26.40;6.73;;;11.10;99.90;;;;;;5043328;28;20052;-84
2024/01/24 06:11:54;;;;;;;37.77;6.90;;;11.00;99.90;;;;;;5036877;28;20373;-87
2024/01/24 06:14:20;;;;;;;33.80;7.10;;;10.90;99.90;;;;;;5042617;28;20128;-85
2024/01/24 06:16:45;;;;;;;27.03;7.10;;;10.90;99.90;;;;;;5039923;28;20119;-89
2024/01/24 06:19:11;;;;;;;22.30;6.60;;;10.90;99.90;;;;;;5054371;28;20037;-89
2024/01/24 06:21:37;;;;;;;26.80;6.93;;;10.80;99.90;;;;;;5062619;28;20125;-85
2024/01/24 06:24:06;;;;;;;33.30;6.63;;;10.80;99.90;;;;;;5039339;28;20120;-88
2024/01/24 06:26:35;;;;;;;27.70;6.32;;;10.90;99.90;;;;;;5040438;28;20048;-88
2024/01/24 06:29:02;;;;;;;31.90;7.40;;;10.80;99.90;;;;;;5049250;28;20044;-88
2024/01/24 06:31:27;;;;;;;30.30;7.50;;;10.80;99.90;;;;;;5039615;28;20045;-90
2024/01/24 06:33:54;;;;;;;32.30;7.43;;;10.80;99.90;;;;;;5051763;28;20038;-87
2024/01/24 06:36:20;;;;;;;31.67;7.53;;;10.80;99.90;;;;;;5049268;28;20060;-87
2024/01/24 06:38:47;;;;;;;33.93;7.40;;;10.80;99.90;;;;;;5034740;28;20240;-88
2024/01/24 06:41:13;;;;;;;20.93;6.67;;;10.70;99.90;;;;;;5051297;28;20099;-86
2024/01/24 06:43:40;;;;;;;30.63;7.60;;;10.70;99.90;;;;;;5055613;28;20048;-88
2024/01/24 06:46:06;;;;;;;32.43;7.47;;;10.70;99.90;;;;;;5051100;28;20532;-91
2024/01/24 06:48:31;;;;;;;24.70;6.93;;;10.60;99.90;;;;;;5034813;28;20049;-90
2024/01/24 06:50:58;;;;;;;31.80;7.03;;;10.60;99.90;;;;;;5053871;28;20047;-90
2024/01/24 06:53:24;;;;;;;33.10;7.13;;;10.60;99.90;;;;;;5043148;28;20048;-88
2024/01/24 06:55:50;;;;;;;30.17;7.40;;;10.60;99.90;;;;;;5035135;28;20064;-89
2024/01/24 06:58:17;;;;;;;34.03;6.80;;;10.70;99.90;;;;;;5034211;28;20063;-91
2024/01/24 07:00:45;;;;;;;26.63;7.13;;;10.70;99.90;;;;;;5048071;28;20071;-89
2024/01/24 07:03:11;;;;;;;32.43;7.47;;;10.70;99.90;;;;;;5051415;28;20040;-89
2024/01/24 07:05:37;;;;;;;28.43;7.40;;;10.60;99.90;;;;;;5051682;28;20048;-88
2024/01/24 07:08:03;;;;;;;33.50;7.70;;;10.70;99.90;;;;;;5035395;28;20048;-91
2024/01/24 07:10:29;;;;;;;28.03;7.50;;;10.70;99.90;;;;;;5037664;28;20044;-88
2024/01/24 07:12:55;;;;;;;28.00;7.37;;;10.70;99.90;;;;;;5054339;28;20132;-89
2024/01/24 07:15:21;;;;;;;29.17;7.67;;;10.70;99.90;;;;;;5046400;28;20065;-88
2024/01/24 07:17:47;;;;;;;28.93;7.80;;;10.80;99.90;;;;;;5045687;28;20444;-90
2024/01/24 07:20:18;;;;;;;28.77;7.30;;;10.70;99.90;;;;;;5034530;28;20064;-90
2024/01/24 07:22:43;;;;;;;34.03;7.60;;;10.70;99.90;;;;;;5051103;28;20056;-88
2024/01/24 07:25:09;;;;;;;33.47;8.93;;;10.80;99.90;;;;;;5043706;28;20236;-90
2024/01/24 07:27:35;;;;;;;31.90;7.67;;;10.70;99.90;;;;;;5035450;28;20123;-87
2024/01/24 07:30:04;;;;;;;29.80;8.23;;;10.60;99.90;;;;;;5038242;28;20047;-88
2024/01/24 07:32:31;;;;;;;31.93;7.43;;;10.60;99.90;;;;;;5044318;28;20499;-89
2024/01/24 07:35:01;;;;;;;34.30;8.47;;;10.60;99.90;;;;;;5043927;28;20047;-85
2024/01/24 07:37:27;;;;;;;33.13;8.40;;;10.60;99.90;;;;;;5048550;28;20111;-88
2024/01/24 07:39:55;;;;;;;37.43;7.77;;;10.60;99.90;;;;;;5048998;28;20115;-84
2024/01/24 07:42:21;;;;;;;36.40;8.30;;;10.60;99.90;;;;;;5046146;28;20540;-88
2024/01/24 07:44:47;;;;;;;36.13;8.43;;;10.50;99.90;;;;;;5050532;28;20076;-86
2024/01/24 07:47:13;;;;;;;31.27;7.80;;;10.60;99.90;;;;;;5045952;28;20489;-89
2024/01/24 07:49:42;;;;;;;31.23;7.90;;;10.50;99.90;;;;;;5046927;28;20044;-91
2024/01/24 07:52:08;;;;;;;41.37;8.97;;;10.40;99.90;;;;;;5052721;28;20036;-88
2024/01/24 07:54:34;;;;;;;34.57;7.80;;;10.40;99.90;;;;;;5050517;28;20123;-91
2024/01/24 07:56:59;;;;;;;33.77;8.73;;;10.50;99.90;;;;;;5034449;28;20269;-87
2024/01/24 07:59:25;;;;;;;33.23;7.63;;;10.50;99.90;;;;;;5034389;28;20249;-83
2024/01/24 08:01:51;;;;;;;41.03;9.23;;;10.50;99.90;;;;;;5033669;28;20037;-90
2024/01/24 08:04:17;;;;;;;31.80;7.77;;;10.50;99.90;;;;;;5053885;28;20500;-89
2024/01/24 08:06:45;;;;;;;33.77;8.07;;;10.50;99.90;;;;;;5041958;28;20040;-86
2024/01/24 08:09:11;;;;;;;33.77;8.63;;;10.50;99.90;;;;;;5056700;28;20044;-89
2024/01/24 08:11:37;;;;;;;40.63;9.80;;;10.50;99.90;;;;;;5053378;28;20040;-91
2024/01/24 08:14:03;;;;;;;34.60;9.33;;;10.40;99.90;;;;;;5034027;28;20875;-86
2024/01/24 08:16:29;;;;;;;34.93;7.97;;;10.40;99.90;;;;;;5033911;28;20045;-89
2024/01/24 08:18:56;;;;;;;35.03;8.23;;;10.40;99.90;;;;;;5032862;28;20423;-86
2024/01/24 08:21:22;;;;;;;32.90;8.33;;;10.50;99.90;;;;;;5017940;28;20097;-88
2024/01/24 08:23:48;;;;;;;33.33;7.77;;;10.50;99.90;;;;;;5050649;28;20564;-87
2024/01/24 08:26:14;;;;;;;32.40;7.63;;;10.50;99.90;;;;;;5039634;28;20032;-87
2024/01/24 08:28:39;;;;;;;30.83;7.93;;;10.50;99.90;;;;;;5042164;28;20033;-87
2024/01/24 08:31:05;;;;;;;30.27;8.03;;;10.50;99.90;;;;;;5052469;28;20041;-86
2024/01/24 08:33:32;;;;;;;29.27;7.20;;;10.40;99.90;;;;;;5017988;28;20041;-91
2024/01/24 08:35:58;;;;;;;36.00;8.67;;;10.40;99.90;;;;;;5051001;28;20064;-88
2024/01/24 08:38:24;;;;;;;36.97;8.83;;;10.40;99.90;;;;;;5033574;28;20064;-86
2024/01/24 08:40:49;;;;;;;32.37;7.90;;;10.50;99.90;;;;;;5049216;28;20518;-86
2024/01/24 08:43:15;;;;;;;32.37;7.87;;;10.40;99.90;;;;;;5039570;28;20721;-87
2024/01/24 08:45:41;;;;;;;32.17;7.10;;;10.50;99.90;;;;;;5033812;28;20103;-87
2024/01/24 08:48:07;;;;;;;35.30;9.00;;;10.50;99.90;;;;;;5050326;28;20063;-89
2024/01/24 08:50:33;;;;;;;36.67;8.30;;;10.40;99.90;;;;;;5034258;28;20069;-87
2024/01/24 08:53:01;;;;;;;34.17;8.40;;;10.40;99.90;;;;;;5034985;28;20076;-92
2024/01/24 08:55:27;;;;;;;37.57;8.23;;;10.40;99.90;;;;;;5033296;28;20053;-88
2024/01/24 08:57:52;;;;;;;29.57;8.37;;;10.40;99.90;;;;;;5033360;28;20090;-90
2024/01/24 09:00:18;;;;;;;39.77;8.93;;;10.40;99.90;;;;;;5042836;28;20048;-91
2024/01/24 09:02:44;;;;;;;36.53;8.57;;;10.40;99.90;;;;;;5062646;28;20124;-90
2024/01/24 09:05:12;;;;;;;35.00;8.67;;;10.40;99.90;;;;;;5040846;28;20094;-88
2024/01/24 09:07:38;;;;;;;39.43;8.73;;;10.40;99.90;;;;;;5051049;28;20382;-86
2024/01/24 09:10:06;;;;;;;38.60;9.53;;;10.40;99.90;;;;;;5032507;28;20560;-84
2024/01/24 09:12:32;;;;;;;40.33;8.83;;;10.40;99.90;;;;;;5036062;28;20059;-90
2024/01/24 09:14:58;;;;;;;36.87;8.87;;;10.40;99.90;;;;;;5050207;28;20560;-87
2024/01/24 09:17:24;;;;;;;37.90;8.90;;;10.40;99.90;;;;;;5052247;28;20535;-89
2024/01/24 09:19:49;;;;;;;36.03;8.67;;;10.40;99.90;;;;;;5033993;28;20051;-87
2024/01/24 09:22:15;;;;;;;33.10;8.10;;;10.50;99.90;;;;;;5033360;28;20041;-89
2024/01/24 09:24:41;;;;;;;35.10;8.13;;;10.50;99.90;;;;;;5033195;28;20052;-87
2024/01/24 09:27:07;;;;;;;34.57;8.47;;;10.50;99.90;;;;;;5055340;28;20389;-89
2024/01/24 09:29:33;;;;;;;33.37;8.23;;;10.50;99.90;;;;;;5053733;28;20079;-91
2024/01/24 09:31:59;;;;;;;33.07;8.23;;;10.60;99.90;;;;;;5037415;28;20055;-86
2024/01/24 09:34:26;;;;;;;37.37;8.30;;;10.60;99.90;;;;;;5053384;28;20056;-90
2024/01/24 09:36:55;;;;;;;31.73;8.20;;;10.60;99.90;;;;;;5020773;28;20045;-86
2024/01/24 09:39:25;;;;;;;35.47;8.20;;;10.60;99.90;;;;;;5038793;28;20052;-87
2024/01/24 09:41:51;;;;;;;31.77;8.07;;;10.60;99.90;;;;;;5021324;28;20037;-86
2024/01/24 09:44:17;;;;;;;32.30;8.50;;;10.70;99.90;;;;;;5066095;28;20090;-87
2024/01/24 09:46:43;;;;;;;31.77;8.13;;;10.70;99.90;;;;;;5053374;28;20048;-88
2024/01/24 09:49:14;;;;;;;28.77;7.97;;;10.70;99.90;;;;;;5029897;28;20142;-84
2024/01/24 09:51:42;;;;;;;26.03;6.90;;;10.80;99.90;;;;;;5034933;28;20076;-85
2024/01/24 09:54:08;;;;;;;31.33;7.90;;;10.80;99.90;;;;;;5037366;28;20496;-88
2024/01/24 09:56:36;;;;;;;33.57;7.70;;;10.90;99.90;;;;;;5047537;28;20047;-88
2024/01/24 09:59:07;;;;;;;30.10;7.73;;;10.90;99.90;;;;;;5031492;28;20068;-87
2024/01/24 10:01:38;;;;;;;29.80;7.23;;;11.00;99.90;;;;;;5037610;28;20040;-89
2024/01/24 10:04:05;;;;;;;36.97;7.57;;;11.00;99.90;;;;;;5075211;28;20049;-88
2024/01/24 10:06:32;;;;;;;29.17;6.80;;;11.00;99.90;;;;;;5044922;28;20040;-90
2024/01/24 10:08:59;;;;;;;29.20;7.90;;;11.10;99.90;;;;;;5037179;28;20045;-83
2024/01/24 10:11:27;;;;;;;28.97;7.50;;;11.10;99.90;;;;;;5035043;28;20041;-86
2024/01/24 10:13:57;;;;;;;23.27;6.83;;;11.20;99.90;;;;;;5019495;28;20037;-87
2024/01/24 10:16:26;;;;;;;32.50;7.07;;;11.20;99.90;;;;;;5040463;28;20065;-88
2024/01/24 10:18:54;;;;;;;30.27;6.90;;;11.20;99.90;;;;;;5037000;28;20032;-85
2024/01/24 10:21:20;;;;;;;26.40;6.30;;;11.20;99.90;;;;;;5053280;28;20048;-86
2024/01/24 10:23:46;;;;;;;28.13;6.20;;;11.20;99.90;;;;;;5035764;28;20056;-87
2024/01/24 10:26:11;;;;;;;30.47;6.63;;;11.20;99.90;;;;;;5036744;28;20040;-85
2024/01/24 10:28:37;;;;;;;24.83;6.43;;;11.30;99.90;;;;;;5034855;28;20131;-87
2024/01/24 10:31:04;;;;;;;31.10;6.87;;;11.30;99.90;;;;;;5035859;28;20353;-85
2024/01/24 10:33:30;;;;;;;30.53;7.23;;;11.30;99.90;;;;;;5054006;28;20036;-91
2024/01/24 10:35:57;;;;;;;26.63;6.67;;;11.30;99.90;;;;;;5018140;28;20037;-85
2024/01/24 10:38:28;;;;;;;26.50;5.80;;;11.30;99.90;;;;;;5036065;28;20112;-84
2024/01/24 10:40:58;;;;;;;26.08;6.93;;;11.30;99.90;;;;;;5054217;28;20182;-89
2024/01/24 10:43:25;;;;;;;25.13;6.27;;;11.40;99.90;;;;;;5036602;28;20327;-90
2024/01/24 10:45:52;;;;;;;27.77;6.53;;;11.40;99.90;;;;;;5047262;28;20033;-89
2024/01/24 10:48:18;;;;;;;35.23;7.17;;;11.40;99.90;;;;;;5046470;28;20048;-90
2024/01/24 10:50:45;;;;;;;23.60;6.30;;;11.40;99.90;;;;;;5032097;28;20468;-88
2024/01/24 10:53:13;;;;;;;28.13;6.07;;;11.40;99.90;;;;;;5028791;28;20033;-88
2024/01/24 10:55:40;;;;;;;27.23;5.63;;;11.60;99.90;;;;;;5029793;28;20097;-88
2024/01/24 10:58:10;;;;;;;25.87;5.93;;;11.60;99.90;;;;;;5044607;28;20401;-85
2024/01/24 11:00:39;;;;;;;28.67;7.23;;;11.60;99.90;;;;;;5030716;28;20055;-89
2024/01/24 11:03:06;;;;;;;23.60;6.43;;;11.60;99.90;;;;;;5028844;28;20174;-89
2024/01/24 11:05:50;;;;;;;29.60;6.30;;;11.60;99.90;;;;;;5029460;28;20440;-88
2024/01/24 11:08:33;;;;;;;26.93;6.27;;;11.60;99.90;;;;;;5030310;28;20124;-86
2024/01/24 11:11:04;;;;;;;24.05;6.07;;;11.60;99.90;;;;;;5043263;28;20044;-85
2024/01/24 11:13:35;;;;;;;22.93;5.83;;;11.60;99.90;;;;;;5027848;28;20508;-87
2024/01/24 11:16:05;;;;;;;23.00;5.90;;;11.50;99.90;;;;;;5032052;28;20037;-87
2024/01/24 11:18:31;;;;;;;20.87;5.03;;;11.50;99.90;;;;;;5027444;28;20065;-87
2024/01/24 11:20:58;;;;;;;21.42;6.15;;;11.50;99.90;;;;;;5047311;28;20079;-89
2024/01/24 11:23:44;;;;;;;22.10;5.93;;;11.40;99.90;;;;;;5043548;28;20136;-89
2024/01/24 11:26:19;;;;;;;25.03;6.50;;;11.40;99.90;;;;;;5029551;28;20044;-90
2024/01/24 11:28:46;;;;;;;28.02;6.47;;;11.40;99.90;;;;;;5028000;28;20053;-94
2024/01/24 11:31:14;;;;;;;23.00;5.47;;;11.30;99.90;;;;;;5011114;28;20429;-87
2024/01/24 11:34:08;;;;;;;30.43;6.60;;;11.30;99.90;;;;;;5027446;28;20103;-90
2024/01/24 11:36:41;;;;;;;23.43;5.83;;;11.30;99.90;;;;;;5045984;28;20037;-87
2024/01/24 11:39:33;;;;;;;23.33;5.60;;;11.30;99.90;;;;;;5027979;28;20029;-85
2024/01/24 11:42:24;;;;;;;23.58;6.45;;;11.30;99.90;;;;;;5025244;28;20033;-84
2024/01/24 11:44:52;;;;;;;23.90;5.87;;;11.20;99.90;;;;;;5027340;28;20037;-87
2024/01/24 11:47:17;;;;;;;24.60;5.10;;;11.30;99.90;;;;;;5043874;28;20040;-87
2024/01/24 11:49:50;;;;;;;23.07;5.30;;;11.30;99.90;;;;;;5025503;28;20040;-83
2024/01/24 11:52:22;;;;;;;20.40;5.03;;;11.20;99.90;;;;;;5046491;28;20044;-88
2024/01/24 11:54:54;;;;;;;25.88;6.38;;;11.20;99.90;;;;;;5028492;28;20049;-92
2024/01/24 11:57:20;;;;;;;20.97;5.53;;;11.10;99.90;;;;;;5043446;28;20041;-87
2024/01/24 11:59:46;;;;;;;17.87;5.27;;;11.20;99.90;;;;;;5028748;28;20499;-87
2024/01/24 12:02:12;;;;;;;21.03;5.40;;;11.20;99.90;;;;;;5010894;28;20090;-90
2024/01/24 12:04:38;;;;;;;29.33;6.13;;;11.20;99.90;;;;;;5011138;28;20151;-93
2024/01/24 12:07:04;;;;;;;14.97;4.00;;;11.20;99.90;;;;;;5022529;28;20044;-88
2024/01/24 12:09:29;;;;;;;23.50;6.10;;;11.20;99.90;;;;;;5014918;28;20044;-92
2024/01/24 12:11:55;;;;;;;25.87;6.13;;;11.30;99.90;;;;;;5014870;28;21266;-90
2024/01/24 12:14:21;;;;;;;28.50;6.23;;;11.20;99.90;;;;;;5028948;28;20036;-89
2024/01/24 12:16:48;;;;;;;21.13;5.60;;;11.20;99.90;;;;;;5013468;28;20033;-93
2024/01/24 12:19:18;;;;;;;23.40;5.90;;;11.20;99.90;;;;;;5042481;28;20040;-88
2024/01/24 12:21:44;;;;;;;25.80;6.70;;;11.20;99.90;;;;;;5027934;28;20041;-86
2024/01/24 12:24:10;;;;;;;31.67;7.03;;;11.20;99.90;;;;;;5029916;28;20060;-91
2024/01/24 12:26:36;;;;;;;24.33;5.60;;;11.20;99.90;;;;;;5026237;28;20492;-91
2024/01/24 12:29:05;;;;;;;23.23;5.80;;;11.20;99.90;;;;;;5044991;28;20484;-88
2024/01/24 12:31:31;;;;;;;27.87;6.17;;;11.20;99.90;;;;;;5027322;28;20037;-89
2024/01/24 12:33:57;;;;;;;22.13;5.03;;;11.20;99.90;;;;;;5027956;28;20103;-90
2024/01/24 12:36:23;;;;;;;24.60;5.73;;;11.30;99.90;;;;;;5028058;28;20119;-87
2024/01/24 12:38:54;;;;;;;20.97;5.77;;;11.30;99.90;;;;;;5046335;28;20032;-85